Time;durP1;ratioP1;P1;durP2;ratioP2;P2;SDS_P1;SDS_P2;PMS_P1;PMS_P2;Temp;Humidity;BMP_temperature;BMP_pressure;BME280_temperature;BME280_humidity;BME280_pressure;Samples;Min_cycle;Max_cycle;Signal;HPM_P1;HPM_P2
2021/08/19 00:00:40;;;;;;;4.88;3.75;;;20.50;72.80;;;;;;10332463;28;20105;-56
2021/08/19 00:05:41;;;;;;;4.15;3.28;;;20.50;72.80;;;;;;10332668;28;20113;-56
2021/08/19 00:10:41;;;;;;;4.78;3.50;;;20.50;72.90;;;;;;10356238;28;20125;-55
2021/08/19 00:15:42;;;;;;;5.20;3.97;;;20.50;72.80;;;;;;10332432;28;20499;-56
2021/08/19 00:20:42;;;;;;;5.32;4.13;;;20.50;72.80;;;;;;10351768;28;20033;-56
2021/08/19 00:25:43;;;;;;;4.47;3.90;;;20.50;72.80;;;;;;10362098;28;20074;-55
2021/08/19 00:30:44;;;;;;;4.22;3.78;;;20.50;72.80;;;;;;10345258;28;20084;-56
2021/08/19 00:35:45;;;;;;;4.20;3.38;;;20.50;72.80;;;;;;10365509;28;20035;-56
2021/08/19 00:40:46;;;;;;;5.10;3.85;;;20.50;72.70;;;;;;10337993;28;20474;-56
2021/08/19 00:45:47;;;;;;;5.20;3.80;;;20.50;72.70;;;;;;10338974;28;20115;-56
2021/08/19 00:50:47;;;;;;;5.05;3.95;;;20.50;72.70;;;;;;10352565;28;20026;-56
2021/08/19 00:55:50;;;;;;;5.43;4.00;;;20.50;72.70;;;;;;10373989;28;20026;-56
2021/08/19 01:00:51;;;;;;;4.88;3.90;;;20.50;72.60;;;;;;10338216;28;20034;-56
2021/08/19 01:05:51;;;;;;;4.88;3.72;;;20.50;72.60;;;;;;10349965;28;20112;-56
2021/08/19 01:10:53;;;;;;;4.32;3.72;;;20.40;72.60;;;;;;10354870;28;20042;-56
2021/08/19 01:15:54;;;;;;;4.80;3.67;;;20.40;72.60;;;;;;10373840;28;20080;-56
2021/08/19 01:20:55;;;;;;;5.85;3.58;;;20.40;72.60;;;;;;10343700;28;20037;-56
2021/08/19 01:25:56;;;;;;;4.35;3.53;;;20.50;72.60;;;;;;10357840;28;20034;-56
2021/08/19 01:30:57;;;;;;;4.75;3.22;;;20.50;72.70;;;;;;10337230;28;20038;-55
2021/08/19 01:35:58;;;;;;;4.55;3.38;;;20.40;72.60;;;;;;10337263;28;20092;-56
2021/08/19 01:40:59;;;;;;;4.60;3.85;;;20.50;72.60;;;;;;10335470;28;20054;-56
2021/08/19 01:46:13;;;;;;;5.30;3.97;;;20.50;72.60;;;;;;10336901;28;20061;-55
2021/08/19 01:51:21;;;;;;;4.28;3.55;;;20.50;72.50;;;;;;10352999;28;20041;-56
2021/08/19 01:56:22;;;;;;;4.43;3.73;;;20.40;72.60;;;;;;10366092;28;20025;-56
2021/08/19 02:01:26;;;;;;;4.82;3.63;;;20.40;72.50;;;;;;10336007;28;20081;-55
2021/08/19 02:06:27;;;;;;;4.65;3.42;;;20.50;72.50;;;;;;10359648;28;20042;-56
2021/08/19 02:11:28;;;;;;;4.55;3.85;;;20.50;72.50;;;;;;10335447;28;20530;-57
2021/08/19 02:16:28;;;;;;;4.35;3.58;;;20.40;72.50;;;;;;10335621;28;20471;-56
2021/08/19 02:21:29;;;;;;;4.25;3.67;;;20.50;72.50;;;;;;10342916;28;20058;-56
2021/08/19 02:26:30;;;;;;;4.97;3.90;;;20.40;72.40;;;;;;10335129;28;20034;-56
2021/08/19 02:31:30;;;;;;;4.25;3.83;;;20.40;72.50;;;;;;10354565;28;20073;-56
2021/08/19 02:36:31;;;;;;;5.40;3.67;;;20.40;72.50;;;;;;10338560;28;20046;-56
2021/08/19 02:41:32;;;;;;;4.00;3.28;;;20.40;72.60;;;;;;10334256;28;20510;-56
2021/08/19 02:46:33;;;;;;;5.43;3.83;;;20.40;72.60;;;;;;10334579;28;20399;-56
2021/08/19 02:51:33;;;;;;;5.18;4.28;;;20.40;72.60;;;;;;10353081;28;20070;-56
2021/08/19 02:56:35;;;;;;;5.55;3.47;;;20.40;72.60;;;;;;10365167;28;20390;-56
2021/08/19 03:01:36;;;;;;;4.68;4.07;;;20.40;72.60;;;;;;10360468;28;20033;-56
2021/08/19 03:06:37;;;;;;;5.22;3.95;;;20.40;72.60;;;;;;10325934;28;20088;-56
2021/08/19 03:11:37;;;;;;;6.05;4.32;;;20.40;72.60;;;;;;10333626;28;20034;-56
2021/08/19 03:16:38;;;;;;;7.80;4.53;;;20.40;72.60;;;;;;10344345;28;20125;-56
2021/08/19 03:21:39;;;;;;;5.45;4.10;;;20.40;72.60;;;;;;10341155;28;20053;-56
2021/08/19 03:26:40;;;;;;;5.93;4.40;;;20.40;72.60;;;;;;10339619;28;20086;-56
2021/08/19 03:31:41;;;;;;;5.55;4.63;;;20.40;72.60;;;;;;10354607;28;20038;-56
2021/08/19 03:36:42;;;;;;;6.18;5.15;;;20.40;72.60;;;;;;10358489;28;20440;-56
2021/08/19 03:41:43;;;;;;;6.70;5.22;;;20.40;72.60;;;;;;10332953;28;20470;-56
2021/08/19 03:46:44;;;;;;;5.70;4.38;;;20.40;72.60;;;;;;10344317;28;20072;-56
2021/08/19 03:51:44;;;;;;;6.07;4.47;;;20.40;72.60;;;;;;10364339;28;20500;-54
2021/08/19 03:56:45;;;;;;;4.88;3.83;;;20.40;72.60;;;;;;10359901;28;20034;-56
2021/08/19 04:01:46;;;;;;;6.13;5.03;;;20.40;72.70;;;;;;10333950;28;20109;-56
2021/08/19 04:06:47;;;;;;;4.80;3.70;;;20.40;73.30;;;;;;10332678;28;20120;-56
2021/08/19 04:11:48;;;;;;;6.55;4.68;;;20.40;72.70;;;;;;10357296;28;20488;-56
2021/08/19 04:16:48;;;;;;;5.78;4.93;;;20.40;72.70;;;;;;10372262;28;20034;-56
2021/08/19 04:21:51;;;;;;;6.20;4.35;;;20.40;72.80;;;;;;10339888;28;20060;-56
2021/08/19 04:26:52;;;;;;;4.28;3.85;;;20.40;72.70;;;;;;10339803;28;20039;-57
2021/08/19 04:31:53;;;;;;;5.90;4.60;;;20.30;72.70;;;;;;10338859;28;20546;-56
2021/08/19 04:36:53;;;;;;;7.43;5.00;;;20.30;72.70;;;;;;10338996;28;20058;-56
2021/08/19 04:41:54;;;;;;;5.65;4.60;;;20.40;72.70;;;;;;10336672;28;20373;-56
2021/08/19 04:46:55;;;;;;;4.85;4.10;;;20.30;72.70;;;;;;10335955;28;20038;-56
2021/08/19 04:51:56;;;;;;;6.47;5.03;;;20.30;72.70;;;;;;10353417;28;20035;-56
2021/08/19 04:56:56;;;;;;;5.35;4.43;;;20.30;72.70;;;;;;10349415;28;20026;-56
2021/08/19 05:01:57;;;;;;;5.85;4.82;;;20.30;72.80;;;;;;10338134;28;20030;-56
2021/08/19 05:06:58;;;;;;;5.55;4.75;;;20.30;72.70;;;;;;10343933;28;20436;-56
2021/08/19 05:11:58;;;;;;;5.57;4.90;;;20.40;73.90;;;;;;10348266;28;20056;-56
2021/08/19 05:17:00;;;;;;;7.65;5.35;;;20.40;73.80;;;;;;10350766;28;20045;-56
2021/08/19 05:22:00;;;;;;;14.57;5.70;;;20.50;74.60;;;;;;10350864;28;20112;-56
2021/08/19 05:27:01;;;;;;;11.00;5.80;;;20.40;74.20;;;;;;10346204;28;20414;-56
2021/08/19 05:32:02;;;;;;;11.85;6.03;;;20.50;75.10;;;;;;10360984;28;20390;-56
2021/08/19 05:37:03;;;;;;;8.77;5.28;;;20.50;75.40;;;;;;10374032;28;20079;-57
2021/08/19 05:42:04;;;;;;;10.25;6.28;;;20.50;75.20;;;;;;10377039;28;20083;-57
2021/08/19 05:47:06;;;;;;;12.32;6.00;;;20.60;75.50;;;;;;10359531;28;20379;-55
2021/08/19 05:52:07;;;;;;;10.35;5.70;;;20.60;75.30;;;;;;10367567;28;20186;-56
2021/08/19 05:57:08;;;;;;;5.53;4.57;;;20.60;75.00;;;;;;10338119;28;20029;-57
2021/08/19 06:02:09;;;;;;;9.57;6.03;;;20.60;74.90;;;;;;10348429;28;20030;-56
2021/08/19 06:07:10;;;;;;;8.10;5.53;;;20.50;74.70;;;;;;10356813;28;20034;-56
2021/08/19 06:12:10;;;;;;;10.32;6.53;;;20.60;74.70;;;;;;10338361;28;20120;-57
2021/08/19 06:17:11;;;;;;;9.80;6.13;;;20.50;74.70;;;;;;10360292;28;20097;-56
2021/08/19 06:22:13;;;;;;;9.38;5.57;;;20.50;74.60;;;;;;10333608;28;20054;-56
2021/08/19 06:27:13;;;;;;;7.10;5.07;;;20.50;74.50;;;;;;10333190;28;20034;-57
2021/08/19 06:32:14;;;;;;;10.07;5.47;;;20.50;74.50;;;;;;10340905;28;20041;-56
2021/08/19 06:37:15;;;;;;;10.80;6.47;;;20.50;74.70;;;;;;10349292;28;20022;-56
2021/08/19 06:42:15;;;;;;;9.80;5.47;;;20.50;74.90;;;;;;10348554;28;20046;-56
2021/08/19 06:47:16;;;;;;;9.98;6.05;;;20.50;74.90;;;;;;10343664;28;20380;-58
2021/08/19 06:52:17;;;;;;;11.38;6.43;;;20.50;74.90;;;;;;10356078;28;20747;-58
2021/08/19 06:57:18;;;;;;;7.32;5.85;;;20.50;75.00;;;;;;10351774;28;20066;-57
2021/08/19 07:02:18;;;;;;;9.65;6.03;;;20.50;74.70;;;;;;10369036;28;20120;-57
2021/08/19 07:07:19;;;;;;;10.25;6.22;;;20.50;74.80;;;;;;10357482;28;20498;-57
2021/08/19 07:12:20;;;;;;;12.77;6.07;;;20.50;74.90;;;;;;10360674;28;20487;-57
2021/08/19 07:17:20;;;;;;;7.43;5.72;;;20.50;74.80;;;;;;10340476;28;20061;-56
2021/08/19 07:22:21;;;;;;;8.23;6.15;;;20.50;74.80;;;;;;10354142;28;20442;-57
2021/08/19 07:27:22;;;;;;;15.63;6.47;;;20.50;74.80;;;;;;10351745;28;20486;-57
2021/08/19 07:32:22;;;;;;;8.15;5.55;;;20.50;74.70;;;;;;10349030;28;20046;-54
2021/08/19 07:37:23;;;;;;;12.60;6.57;;;20.50;74.80;;;;;;10346962;28;20117;-57
2021/08/19 07:42:24;;;;;;;10.45;5.97;;;20.50;74.70;;;;;;10349754;28;20057;-58
2021/08/19 07:47:25;;;;;;;8.73;7.13;;;20.50;74.70;;;;;;10358674;28;20029;-57
2021/08/19 07:52:25;;;;;;;9.15;6.40;;;20.50;74.70;;;;;;10356633;28;20129;-58
2021/08/19 07:57:26;;;;;;;9.80;6.85;;;20.50;74.70;;;;;;10354803;28;20057;-57
2021/08/19 08:02:26;;;;;;;7.63;6.28;;;20.50;74.70;;;;;;10354559;28;20072;-57
2021/08/19 08:07:28;;;;;;;9.60;6.93;;;20.50;74.70;;;;;;10355992;28;20034;-57
2021/08/19 08:12:29;;;;;;;7.32;6.00;;;20.50;74.80;;;;;;10349978;28;20038;-56
2021/08/19 08:17:31;;;;;;;9.38;6.18;;;20.50;74.70;;;;;;10356995;28;20127;-57
2021/08/19 08:22:33;;;;;;;7.50;5.95;;;20.50;74.70;;;;;;10364763;28;20045;-57
2021/08/19 08:27:33;;;;;;;6.20;5.47;;;20.50;74.50;;;;;;10362037;28;20411;-57
2021/08/19 08:32:34;;;;;;;6.78;5.80;;;20.50;74.50;;;;;;10359397;28;20121;-56
2021/08/19 08:37:35;;;;;;;8.48;6.32;;;20.40;74.30;;;;;;10358507;28;20486;-56
2021/08/19 08:42:36;;;;;;;7.22;5.63;;;20.50;74.40;;;;;;10372406;28;20111;-56
2021/08/19 08:47:39;;;;;;;9.85;6.10;;;20.40;74.30;;;;;;10342031;28;20379;-55
2021/08/19 08:52:41;;;;;;;9.25;5.70;;;20.40;74.40;;;;;;10335749;28;20038;-56
2021/08/19 08:57:42;;;;;;;7.63;5.78;;;20.50;74.40;;;;;;10332393;28;20054;-56
2021/08/19 09:02:44;;;;;;;9.13;5.03;;;20.50;74.40;;;;;;10346558;28;20391;-56
2021/08/19 09:07:59;;;;;;;9.27;6.20;;;20.40;74.40;;;;;;10340995;28;20034;-55
2021/08/19 09:13:14;;;;;;;7.28;5.50;;;20.50;74.40;;;;;;10347487;28;20031;-56
2021/08/19 09:18:33;;;;;;;9.27;6.05;;;20.40;74.30;;;;;;10346518;28;20030;-55
2021/08/19 09:23:34;;;;;;;6.60;5.90;;;20.50;74.30;;;;;;10337649;28;20438;-56
2021/08/19 09:28:34;;;;;;;7.32;5.72;;;20.40;74.40;;;;;;10345247;28;20124;-56
2021/08/19 09:33:42;;;;;;;9.43;5.43;;;20.40;74.40;;;;;;10375169;28;20032;-56
2021/08/19 09:38:44;;;;;;;7.60;6.68;;;20.40;74.50;;;;;;10374815;28;20116;-56
2021/08/19 09:43:51;;;;;;;8.60;6.10;;;20.40;74.40;;;;;;10299951;28;1040662;-56
2021/08/19 09:48:52;;;;;;;9.10;5.63;;;20.40;74.40;;;;;;10356135;28;20037;-56
2021/08/19 09:53:58;;;;;;;7.25;6.00;;;20.40;74.50;;;;;;10335868;28;20037;-56
2021/08/19 09:59:23;;;;;;;8.18;5.38;;;20.40;74.40;;;;;;10335652;28;20038;-56
2021/08/19 10:04:25;;;;;;;6.82;5.53;;;20.40;74.20;;;;;;10335614;28;20041;-55
2021/08/19 10:09:26;;;;;;;8.05;5.78;;;20.40;74.30;;;;;;10334568;28;20026;-56
2021/08/19 10:14:30;;;;;;;7.07;6.30;;;20.40;74.30;;;;;;10335099;28;20077;-56
2021/08/19 10:19:34;;;;;;;6.80;4.82;;;20.40;74.40;;;;;;10343182;28;20042;-56
2021/08/19 10:24:38;;;;;;;9.38;5.93;;;20.40;74.30;;;;;;10333567;28;20093;-56
2021/08/19 10:29:50;;;;;;;6.13;4.72;;;20.30;74.30;;;;;;10330581;28;20031;-56
2021/08/19 10:34:55;;;;;;;6.70;5.30;;;20.40;74.30;;;;;;10333300;28;20473;-56
2021/08/19 10:39:55;;;;;;;6.40;5.32;;;20.40;74.40;;;;;;10346277;28;20036;-56
2021/08/19 10:44:56;;;;;;;9.13;5.25;;;20.40;74.40;;;;;;10344898;28;20037;-53
2021/08/19 10:50:28;;;;;;;6.47;5.88;;;20.40;74.40;;;;;;10344746;28;20081;-55
2021/08/19 10:55:43;;;;;;;8.82;5.72;;;20.40;74.20;;;;;;10346540;28;20078;-55
2021/08/19 11:00:43;;;;;;;6.63;5.32;;;20.40;74.30;;;;;;10341793;28;20025;-55
2021/08/19 11:05:44;;;;;;;6.25;5.10;;;20.40;74.30;;;;;;10345349;28;20045;-56
2021/08/19 11:10:53;;;;;;;8.05;5.68;;;20.40;74.30;;;;;;10347198;28;20500;-55
2021/08/19 11:15:54;;;;;;;5.78;5.20;;;20.40;74.10;;;;;;10360897;28;20366;-55
2021/08/19 11:20:55;;;;;;;7.57;5.22;;;20.40;74.40;;;;;;10367785;28;20038;-55
2021/08/19 11:26:10;;;;;;;6.65;5.18;;;20.40;74.30;;;;;;10371903;28;20137;-55
2021/08/19 11:31:22;;;;;;;6.10;4.63;;;20.40;74.20;;;;;;10334324;28;20068;-55
2021/08/19 11:36:24;;;;;;;5.82;4.72;;;20.40;74.20;;;;;;10333260;28;20023;-54
2021/08/19 11:41:25;;;;;;;7.75;5.25;;;20.40;74.20;;;;;;10332643;28;20499;-55
2021/08/19 11:46:27;;;;;;;7.10;5.68;;;20.40;74.20;;;;;;10342146;28;20387;-55
2021/08/19 11:51:36;;;;;;;6.50;5.05;;;20.40;74.20;;;;;;10332700;28;20034;-55
2021/08/19 11:56:43;;;;;;;5.93;5.33;;;20.40;74.20;;;;;;10331003;28;20479;-54
2021/08/19 12:01:55;;;;;;;5.80;4.88;;;20.40;74.20;;;;;;10331523;28;20109;-55
2021/08/19 12:06:57;;;;;;;6.05;5.45;;;20.40;74.20;;;;;;10332386;28;20184;-55
2021/08/19 12:11:58;;;;;;;6.65;6.00;;;20.40;74.20;;;;;;10331644;28;20030;-55
2021/08/19 12:16:59;;;;;;;6.05;5.38;;;20.40;74.30;;;;;;10334399;28;20423;-55
2021/08/19 12:22:00;;;;;;;6.03;5.38;;;20.40;74.20;;;;;;10337974;28;20109;-55
2021/08/19 12:27:07;;;;;;;6.93;6.10;;;20.40;74.10;;;;;;10330569;28;20034;-55
2021/08/19 12:32:24;;;;;;;6.32;5.47;;;20.40;74.20;;;;;;10333400;28;20109;-55
2021/08/19 12:37:27;;;;;;;5.47;4.97;;;20.40;74.00;;;;;;10367380;28;20034;-54
2021/08/19 12:42:35;;;;;;;5.90;5.25;;;20.40;74.10;;;;;;10347791;28;20046;-55
2021/08/19 12:47:45;;;;;;;5.88;5.28;;;20.40;74.10;;;;;;10329368;28;20479;-54
2021/08/19 12:52:47;;;;;;;6.47;5.68;;;20.40;74.10;;;;;;10338150;28;20080;-55
2021/08/19 12:57:48;;;;;;;7.32;6.05;;;20.40;74.10;;;;;;10338009;28;20113;-55
2021/08/19 13:02:50;;;;;;;7.07;5.00;;;20.40;74.00;;;;;;10338379;28;20101;-55
2021/08/19 13:07:51;;;;;;;6.93;5.65;;;20.40;74.10;;;;;;10337938;28;20372;-55
2021/08/19 13:12:53;;;;;;;5.53;5.03;;;20.40;74.00;;;;;;10337456;28;20117;-55
2021/08/19 13:17:53;;;;;;;6.13;5.10;;;20.40;74.00;;;;;;10344316;28;20040;-54
2021/08/19 13:22:54;;;;;;;5.72;5.13;;;20.40;74.00;;;;;;10337128;28;20034;-55
2021/08/19 13:27:55;;;;;;;5.53;4.90;;;20.40;74.10;;;;;;10337118;28;20043;-56
2021/08/19 13:32:55;;;;;;;5.75;5.22;;;20.40;74.10;;;;;;10336656;28;20030;-54
2021/08/19 13:37:56;;;;;;;6.13;5.35;;;20.40;74.10;;;;;;10336597;28;20483;-55
2021/08/19 13:42:57;;;;;;;7.05;4.93;;;20.40;74.00;;;;;;10346822;28;20137;-55
2021/08/19 13:48:01;;;;;;;6.90;5.55;;;20.40;74.00;;;;;;10364696;28;20057;-55
2021/08/19 13:53:01;;;;;;;7.03;5.07;;;20.40;74.00;;;;;;10376452;28;20545;-55
2021/08/19 13:58:02;;;;;;;5.93;4.88;;;20.40;74.00;;;;;;10376584;28;20096;-54
2021/08/19 14:03:03;;;;;;;6.57;5.07;;;20.40;74.00;;;;;;10376405;28;20417;-54
2021/08/19 14:08:04;;;;;;;6.43;5.20;;;20.40;73.90;;;;;;10376189;28;20033;-55
2021/08/19 14:13:05;;;;;;;5.97;5.38;;;20.40;73.90;;;;;;10375668;28;20038;-55
2021/08/19 14:18:07;;;;;;;5.70;4.40;;;20.40;73.90;;;;;;10362389;28;20033;-55
2021/08/19 14:23:07;;;;;;;6.07;5.20;;;20.40;73.90;;;;;;10333699;28;20031;-55
2021/08/19 14:28:08;;;;;;;6.32;5.53;;;20.40;73.90;;;;;;10334689;28;20455;-55
2021/08/19 14:33:09;;;;;;;6.93;5.35;;;20.40;73.90;;;;;;10334625;28;20050;-55
2021/08/19 14:38:10;;;;;;;6.93;5.47;;;20.40;73.90;;;;;;10334651;28;20031;-54
2021/08/19 14:43:10;;;;;;;6.72;5.28;;;20.40;73.90;;;;;;10347159;28;20503;-55
2021/08/19 14:48:13;;;;;;;5.97;5.47;;;20.40;74.40;;;;;;10351553;28;20161;-54
2021/08/19 14:53:14;;;;;;;5.53;4.95;;;20.30;73.80;;;;;;10341746;28;20039;-55
2021/08/19 14:58:15;;;;;;;7.25;5.15;;;20.40;73.80;;;;;;10331798;28;20477;-55
2021/08/19 15:03:16;;;;;;;6.50;5.85;;;20.30;73.80;;;;;;10334007;28;20034;-55
2021/08/19 15:08:16;;;;;;;7.22;4.93;;;20.40;73.80;;;;;;10333805;28;20116;-55
2021/08/19 15:13:17;;;;;;;6.47;5.70;;;20.40;73.80;;;;;;10332851;28;20113;-55
2021/08/19 15:18:18;;;;;;;6.00;5.40;;;20.40;73.90;;;;;;10340588;28;20033;-55
2021/08/19 15:23:18;;;;;;;6.25;4.70;;;20.40;73.80;;;;;;10334122;28;20125;-56
2021/08/19 15:28:19;;;;;;;5.28;4.65;;;20.40;73.90;;;;;;10333288;28;20077;-55
2021/08/19 15:33:21;;;;;;;5.70;4.50;;;20.40;74.00;;;;;;10329690;28;20387;-51
2021/08/19 15:38:21;;;;;;;5.80;5.10;;;20.40;74.00;;;;;;10349401;28;20030;-55
2021/08/19 15:43:22;;;;;;;5.63;5.13;;;20.50;74.00;;;;;;10369198;28;20092;-55
2021/08/19 15:48:24;;;;;;;5.45;4.95;;;20.50;74.00;;;;;;10366460;28;20119;-53
2021/08/19 15:53:24;;;;;;;10.93;6.50;;;20.50;74.20;;;;;;10361439;28;20466;-55
2021/08/19 15:58:29;;;;;;;10.85;6.70;;;20.60;74.50;;;;;;10340782;28;20061;-55
2021/08/19 16:03:30;;;;;;;14.27;7.60;;;20.60;74.80;;;;;;10346443;28;20490;-54
2021/08/19 16:08:30;;;;;;;14.23;8.27;;;20.70;74.80;;;;;;10352550;28;20145;-54
2021/08/19 16:13:31;;;;;;;17.30;8.55;;;20.80;76.00;;;;;;10377994;28;20026;-56
2021/08/19 16:18:32;;;;;;;10.93;8.10;;;20.80;77.20;;;;;;10363618;28;20041;-56
2021/08/19 16:23:33;;;;;;;11.88;8.57;;;20.80;76.40;;;;;;10350625;28;20113;-55
2021/08/19 16:28:34;;;;;;;13.25;8.88;;;20.80;75.90;;;;;;10349946;28;20485;-56
2021/08/19 16:33:35;;;;;;;11.77;8.70;;;20.80;76.10;;;;;;10339246;28;20093;-54
2021/08/19 16:38:37;;;;;;;14.27;8.43;;;20.80;76.00;;;;;;10369059;28;20030;-52
2021/08/19 16:43:38;;;;;;;10.60;7.80;;;20.80;75.90;;;;;;10359249;28;20700;-56
2021/08/19 16:48:39;;;;;;;10.68;8.48;;;20.80;75.70;;;;;;10342373;28;20038;-54
2021/08/19 16:53:40;;;;;;;9.10;7.75;;;20.70;75.40;;;;;;10350259;28;20038;-53
2021/08/19 16:58:40;;;;;;;7.72;6.80;;;20.70;75.50;;;;;;10354014;28;20045;-53
2021/08/19 17:03:41;;;;;;;8.25;6.95;;;20.70;75.30;;;;;;10341316;28;20034;-55
2021/08/19 17:08:42;;;;;;;11.23;6.80;;;20.70;75.30;;;;;;10338438;28;20081;-53
2021/08/19 17:13:42;;;;;;;9.93;7.28;;;20.60;75.20;;;;;;10336944;28;20478;-53
2021/08/19 17:18:43;;;;;;;7.03;6.32;;;20.60;75.20;;;;;;10347738;28;20062;-52
2021/08/19 17:23:44;;;;;;;11.38;7.40;;;20.60;75.10;;;;;;10337595;28;20038;-53
2021/08/19 17:28:44;;;;;;;7.35;6.55;;;20.60;75.10;;;;;;10337495;28;20027;-53
2021/08/19 17:33:46;;;;;;;9.30;6.80;;;20.60;75.70;;;;;;10337340;28;20038;-54
2021/08/19 17:38:46;;;;;;;8.50;7.00;;;20.60;75.10;;;;;;10342702;28;20033;-52
2021/08/19 17:43:48;;;;;;;7.45;6.43;;;20.50;74.90;;;;;;10346637;28;20105;-55
2021/08/19 17:48:49;;;;;;;7.60;6.28;;;20.60;75.00;;;;;;10346024;28;20072;-56
2021/08/19 17:53:49;;;;;;;8.20;6.28;;;20.50;74.80;;;;;;10348645;28;20033;-48
2021/08/19 17:58:51;;;;;;;8.50;6.15;;;20.60;75.00;;;;;;10351468;28;20105;-55
2021/08/19 18:03:52;;;;;;;9.25;6.18;;;20.60;74.90;;;;;;10353824;28;20026;-55
2021/08/19 18:08:53;;;;;;;8.90;5.68;;;20.50;74.90;;;;;;10341102;28;20088;-54
2021/08/19 18:13:54;;;;;;;6.72;5.95;;;20.50;74.90;;;;;;10350090;28;20053;-55
2021/08/19 18:18:54;;;;;;;9.80;5.85;;;20.50;75.10;;;;;;10351351;28;20458;-55
2021/08/19 18:23:55;;;;;;;9.38;6.30;;;20.60;75.10;;;;;;10355875;28;20117;-55
2021/08/19 18:28:56;;;;;;;6.20;5.40;;;20.60;75.00;;;;;;10349354;28;20026;-53
2021/08/19 18:33:57;;;;;;;9.13;6.43;;;20.60;75.00;;;;;;10344266;28;20026;-53
2021/08/19 18:38:57;;;;;;;7.00;5.50;;;20.50;75.30;;;;;;10353266;28;20053;-53
2021/08/19 18:43:58;;;;;;;6.85;5.60;;;20.60;75.50;;;;;;10339555;28;20050;-54
2021/08/19 18:48:59;;;;;;;11.15;5.78;;;20.50;75.40;;;;;;10336454;28;20066;-54
2021/08/19 18:54:04;;;;;;;7.68;5.55;;;20.50;75.40;;;;;;10343512;28;20022;-53
2021/08/19 18:59:05;;;;;;;6.85;5.53;;;20.50;75.50;;;;;;10342613;28;20030;-52
2021/08/19 19:04:05;;;;;;;8.43;5.63;;;20.50;75.50;;;;;;10352442;28;20026;-54
2021/08/19 19:09:06;;;;;;;8.57;5.82;;;20.50;75.50;;;;;;10343115;28;20121;-51
2021/08/19 19:14:07;;;;;;;6.25;5.60;;;20.60;75.50;;;;;;10344381;28;20442;-52
2021/08/19 19:19:08;;;;;;;6.20;5.55;;;20.50;75.40;;;;;;10351662;28;20037;-54
2021/08/19 19:24:09;;;;;;;6.75;5.38;;;20.50;75.40;;;;;;10337059;28;20042;-54
2021/08/19 19:29:10;;;;;;;7.97;5.80;;;20.60;75.40;;;;;;10370215;28;20434;-54
2021/08/19 19:34:12;;;;;;;8.30;5.60;;;20.60;75.40;;;;;;10340776;28;20066;-55
2021/08/19 19:39:13;;;;;;;7.55;5.68;;;20.60;75.20;;;;;;10350789;28;20034;-54
2021/08/19 19:44:14;;;;;;;7.95;5.32;;;20.60;75.10;;;;;;10365814;28;20387;-55
2021/08/19 19:49:14;;;;;;;7.35;5.40;;;20.50;75.00;;;;;;10357389;28;20446;-55
2021/08/19 19:54:15;;;;;;;8.57;5.68;;;20.50;75.00;;;;;;10355462;28;20027;-55
2021/08/19 19:59:16;;;;;;;6.32;5.70;;;20.50;75.00;;;;;;10358597;28;20057;-55
2021/08/19 20:04:16;;;;;;;5.97;5.32;;;20.50;74.90;;;;;;10355161;28;20065;-55
2021/08/19 20:09:17;;;;;;;5.88;5.25;;;20.50;74.90;;;;;;10359354;28;20062;-55
2021/08/19 20:14:18;;;;;;;6.85;5.57;;;20.50;74.90;;;;;;10355914;28;20416;-55
2021/08/19 20:19:19;;;;;;;5.88;5.00;;;20.50;74.80;;;;;;10359287;28;20088;-55
2021/08/19 20:24:19;;;;;;;6.55;5.55;;;20.50;74.80;;;;;;10351735;28;20439;-55
2021/08/19 20:29:20;;;;;;;6.50;5.47;;;20.50;74.80;;;;;;10350712;28;20038;-54
2021/08/19 20:34:21;;;;;;;7.38;5.60;;;20.40;74.80;;;;;;10367323;28;20076;-54
2021/08/19 20:39:21;;;;;;;6.53;5.90;;;20.40;74.70;;;;;;10377159;28;20502;-55
2021/08/19 20:44:22;;;;;;;6.05;5.45;;;20.50;74.70;;;;;;10378300;28;20030;-55
2021/08/19 20:49:23;;;;;;;7.72;5.50;;;20.40;74.60;;;;;;10362441;28;20076;-55
2021/08/19 20:54:24;;;;;;;6.20;5.13;;;20.40;74.60;;;;;;10366648;28;20072;-55
2021/08/19 20:59:24;;;;;;;5.35;4.85;;;20.40;74.50;;;;;;10353119;28;20125;-55
2021/08/19 21:04:25;;;;;;;7.00;4.75;;;20.40;75.20;;;;;;10338228;28;20062;-55
2021/08/19 21:09:26;;;;;;;7.63;5.80;;;20.40;74.50;;;;;;10338498;28;20069;-55
2021/08/19 21:14:27;;;;;;;7.47;5.43;;;20.40;74.50;;;;;;10337921;28;20026;-54
2021/08/19 21:19:27;;;;;;;6.55;5.95;;;20.40;74.50;;;;;;10359563;28;20069;-55
2021/08/19 21:24:28;;;;;;;6.40;5.13;;;20.40;74.40;;;;;;10377894;28;20061;-55
2021/08/19 21:29:28;;;;;;;6.25;5.30;;;20.40;74.40;;;;;;10359958;28;20054;-55
2021/08/19 21:34:29;;;;;;;7.82;5.88;;;20.40;74.40;;;;;;10365453;28;20069;-55
2021/08/19 21:39:30;;;;;;;6.57;5.13;;;20.40;74.40;;;;;;10358093;28;20046;-55
2021/08/19 21:44:31;;;;;;;6.55;5.35;;;20.40;74.40;;;;;;10336923;28;20062;-54
2021/08/19 21:49:32;;;;;;;5.93;5.32;;;20.40;74.30;;;;;;10336615;28;20387;-55
2021/08/19 21:54:34;;;;;;;6.15;5.55;;;20.40;74.20;;;;;;10364954;28;20073;-55
2021/08/19 21:59:35;;;;;;;5.78;5.22;;;20.40;74.20;;;;;;10359892;28;20034;-54
2021/08/19 22:04:35;;;;;;;6.97;5.65;;;20.30;74.10;;;;;;10335034;28;20117;-54
2021/08/19 22:09:37;;;;;;;6.13;5.32;;;20.30;74.10;;;;;;10334575;28;20026;-55
2021/08/19 22:14:37;;;;;;;5.50;5.00;;;20.30;74.10;;;;;;10336027;28;20060;-55
2021/08/19 22:19:38;;;;;;;6.75;6.03;;;20.40;74.20;;;;;;10348404;28;20113;-55
2021/08/19 22:24:39;;;;;;;6.43;5.30;;;20.30;74.00;;;;;;10348244;28;20449;-55
2021/08/19 22:29:42;;;;;;;7.22;5.95;;;20.30;74.00;;;;;;10366296;28;20591;-55
2021/08/19 22:34:47;;;;;;;5.55;5.05;;;20.30;74.00;;;;;;10357946;28;20058;-55
2021/08/19 22:39:48;;;;;;;5.38;4.88;;;20.30;73.90;;;;;;10357723;28;20054;-54
2021/08/19 22:44:48;;;;;;;6.25;5.20;;;20.30;73.90;;;;;;10359976;28;20176;-54
2021/08/19 22:49:49;;;;;;;6.65;5.70;;;20.30;73.90;;;;;;10358020;28;20123;-55
2021/08/19 22:54:50;;;;;;;7.70;5.95;;;20.30;73.90;;;;;;10361823;28;20105;-55
2021/08/19 22:59:50;;;;;;;5.70;5.07;;;20.30;73.90;;;;;;10332485;28;20045;-55
2021/08/19 23:04:51;;;;;;;6.50;5.57;;;20.30;73.90;;;;;;10350378;28;20030;-55
2021/08/19 23:09:52;;;;;;;5.88;5.32;;;20.30;73.90;;;;;;10365071;28;21450;-56
2021/08/19 23:14:52;;;;;;;5.32;4.80;;;20.30;73.80;;;;;;10371736;28;20044;-55
2021/08/19 23:19:53;;;;;;;5.88;5.30;;;20.30;73.80;;;;;;10346435;28;20037;-55
2021/08/19 23:24:54;;;;;;;5.70;5.15;;;20.30;73.80;;;;;;10351047;28;20442;-55
2021/08/19 23:29:54;;;;;;;6.13;5.43;;;20.30;73.80;;;;;;10360253;28;20510;-54
2021/08/19 23:34:55;;;;;;;7.38;5.97;;;20.20;73.70;;;;;;10359231;28;20062;-55
2021/08/19 23:39:56;;;;;;;5.65;5.10;;;20.20;73.70;;;;;;10333840;28;20058;-55
2021/08/19 23:44:57;;;;;;;6.45;5.82;;;20.20;73.70;;;;;;10333663;28;20030;-55
2021/08/19 23:50:00;;;;;;;5.72;5.10;;;20.20;73.70;;;;;;10332861;28;20031;-55
2021/08/19 23:55:01;;;;;;;6.60;6.00;;;20.20;73.70;;;;;;10332961;28;20506;-55
